Time;durP1;ratioP1;P1;durP2;ratioP2;P2;SDS_P1;SDS_P2;PMS_P1;PMS_P2;Temp;Humidity;BMP_temperature;BMP_pressure;BME280_temperature;BME280_humidity;BME280_pressure;Samples;Min_cycle;Max_cycle;Signal;HPM_P1;HPM_P2
2023/09/24 00:02:00;;;;;;;8.23;2.47;;;16.90;99.90;;;;;;5057120;28;20075;-79
2023/09/24 00:04:25;;;;;;;4.30;2.30;;;17.00;99.90;;;;;;5045144;28;20040;-78
2023/09/24 00:06:51;;;;;;;9.68;2.47;;;16.90;99.90;;;;;;5035995;28;20076;-80
2023/09/24 00:09:16;;;;;;;4.18;2.80;;;16.90;99.90;;;;;;5018115;28;20091;-81
2023/09/24 00:11:42;;;;;;;6.03;2.53;;;17.10;99.90;;;;;;5038332;28;20127;-79
2023/09/24 00:14:10;;;;;;;5.80;2.58;;;16.90;99.90;;;;;;5046689;28;20179;-83
2023/09/24 00:16:36;;;;;;;5.90;2.25;;;17.00;99.90;;;;;;5047194;28;20102;-80
2023/09/24 00:19:03;;;;;;;6.13;2.28;;;17.00;99.90;;;;;;5015336;28;20041;-79
2023/09/24 00:21:29;;;;;;;5.85;2.30;;;16.90;99.90;;;;;;5034754;28;20597;-81
2023/09/24 00:23:54;;;;;;;5.15;2.90;;;17.00;99.90;;;;;;5069517;28;20037;-80
2023/09/24 00:26:20;;;;;;;5.43;2.90;;;16.90;99.90;;;;;;5037661;28;20086;-82
2023/09/24 00:28:45;;;;;;;4.80;2.00;;;17.00;99.90;;;;;;5060740;28;20049;-81
2023/09/24 00:31:11;;;;;;;5.97;2.53;;;17.00;99.90;;;;;;5030128;28;20192;-79
2023/09/24 00:33:37;;;;;;;4.97;2.33;;;16.90;99.90;;;;;;5041474;28;20094;-79
2023/09/24 00:36:03;;;;;;;7.28;2.63;;;16.80;99.90;;;;;;5036093;28;20045;-79
2023/09/24 00:38:29;;;;;;;6.15;2.30;;;16.90;99.90;;;;;;5049523;28;20119;-79
2023/09/24 00:40:54;;;;;;;4.93;2.60;;;16.70;99.90;;;;;;5051761;28;20041;-80
2023/09/24 00:43:32;;;;;;;2.95;2.10;;;16.60;99.90;;;;;;5040729;28;20044;-78
2023/09/24 00:46:09;;;;;;;5.63;2.22;;;16.60;99.90;;;;;;5026677;28;20036;-80
2023/09/24 00:48:36;;;;;;;6.00;2.20;;;16.50;99.90;;;;;;5044625;28;20126;-80
2023/09/24 00:51:18;;;;;;;5.25;2.10;;;16.50;99.90;;;;;;5050201;28;20037;-81
2023/09/24 00:53:45;;;;;;;6.50;2.10;;;16.50;99.90;;;;;;5042727;28;20052;-80
2023/09/24 00:56:11;;;;;;;6.03;2.33;;;16.40;99.90;;;;;;5054029;28;20045;-81
2023/09/24 00:58:38;;;;;;;4.38;2.28;;;16.40;99.90;;;;;;5033341;28;20052;-79
2023/09/24 01:01:03;;;;;;;3.85;2.20;;;16.30;99.90;;;;;;5016551;28;20048;-78
2023/09/24 01:03:30;;;;;;;8.00;2.25;;;16.20;99.90;;;;;;5032732;28;20033;-80
2023/09/24 01:05:56;;;;;;;4.30;2.10;;;16.20;99.90;;;;;;5032478;28;20060;-78
2023/09/24 01:08:23;;;;;;;5.03;2.60;;;16.10;99.90;;;;;;5033556;28;20382;-80
2023/09/24 01:10:50;;;;;;;5.57;2.88;;;16.00;99.90;;;;;;5033754;28;20421;-79
2023/09/24 01:13:20;;;;;;;6.50;2.40;;;16.10;99.90;;;;;;5033539;28;20047;-81
2023/09/24 01:15:48;;;;;;;4.57;2.20;;;16.10;99.90;;;;;;5068721;28;20049;-80
2023/09/24 01:18:14;;;;;;;6.35;2.50;;;16.10;99.90;;;;;;5033549;28;20513;-80
2023/09/24 01:20:41;;;;;;;5.18;2.35;;;16.00;99.90;;;;;;5048662;28;20045;-81
2023/09/24 01:23:09;;;;;;;3.95;2.22;;;16.10;99.90;;;;;;5046000;28;20049;-80
2023/09/24 01:25:35;;;;;;;4.03;2.75;;;16.00;99.90;;;;;;5033429;28;20087;-79
2023/09/24 01:28:03;;;;;;;8.70;2.70;;;16.00;99.90;;;;;;5048680;28;20040;-79
2023/09/24 01:30:30;;;;;;;7.32;3.45;;;15.90;99.90;;;;;;5032624;28;20060;-79
2023/09/24 01:32:57;;;;;;;7.07;2.80;;;15.90;99.90;;;;;;5050711;28;20083;-80
2023/09/24 01:35:27;;;;;;;4.72;2.58;;;16.00;99.90;;;;;;5033097;28;20032;-80
2023/09/24 01:38:00;;;;;;;9.07;2.58;;;15.80;99.90;;;;;;5033822;28;20388;-80
2023/09/24 01:40:32;;;;;;;6.00;2.45;;;15.90;99.90;;;;;;5031972;28;20049;-81
2023/09/24 01:42:59;;;;;;;10.75;3.58;;;15.90;99.90;;;;;;5017404;28;20036;-80
2023/09/24 01:45:26;;;;;;;8.55;3.45;;;15.90;99.90;;;;;;5044030;28;20040;-79
2023/09/24 01:47:52;;;;;;;5.32;2.72;;;15.90;99.90;;;;;;5033826;28;20041;-81
2023/09/24 01:50:18;;;;;;;5.13;3.00;;;15.80;99.90;;;;;;5049840;28;20440;-80
2023/09/24 01:52:45;;;;;;;5.13;2.70;;;15.90;99.90;;;;;;5019386;28;20041;-81
2023/09/24 01:55:15;;;;;;;7.68;3.17;;;16.00;99.90;;;;;;5046972;28;20033;-81
2023/09/24 01:57:44;;;;;;;4.28;2.70;;;15.90;99.90;;;;;;5053595;28;20380;-80
2023/09/24 02:00:12;;;;;;;9.13;3.53;;;15.90;99.90;;;;;;5048919;28;20094;-80
2023/09/24 02:02:38;;;;;;;6.68;3.28;;;15.90;99.90;;;;;;5015161;28;20041;-79
2023/09/24 02:05:10;;;;;;;6.38;3.55;;;16.00;99.90;;;;;;5026066;28;20041;-82
2023/09/24 02:07:40;;;;;;;9.60;3.38;;;16.00;99.90;;;;;;5053912;28;20040;-81
2023/09/24 02:10:07;;;;;;;10.40;3.40;;;16.20;99.90;;;;;;5044160;28;20060;-80
2023/09/24 02:12:37;;;;;;;7.93;3.70;;;16.10;99.90;;;;;;5031340;28;20041;-81
2023/09/24 02:15:18;;;;;;;6.13;3.30;;;16.20;99.90;;;;;;5046935;28;20044;-80
2023/09/24 02:17:50;;;;;;;8.88;3.58;;;16.10;99.90;;;;;;5032910;28;20094;-80
2023/09/24 02:20:18;;;;;;;7.72;3.17;;;16.10;99.90;;;;;;5031601;28;20119;-81
2023/09/24 02:22:50;;;;;;;8.13;4.15;;;16.20;99.90;;;;;;5031989;28;20144;-81
2023/09/24 02:25:20;;;;;;;9.57;3.35;;;16.20;99.90;;;;;;5030921;28;20036;-80
2023/09/24 02:27:53;;;;;;;9.02;4.05;;;16.20;99.90;;;;;;5033175;28;20039;-81
2023/09/24 02:30:20;;;;;;;8.07;3.55;;;16.10;99.90;;;;;;5032530;28;20043;-80
2023/09/24 02:32:47;;;;;;;6.38;3.83;;;16.20;99.90;;;;;;5031879;28;20123;-81
2023/09/24 02:35:14;;;;;;;7.70;4.32;;;16.20;99.90;;;;;;5027961;28;20432;-80
2023/09/24 02:37:45;;;;;;;9.40;3.83;;;16.10;99.90;;;;;;5032716;28;20044;-79
2023/09/24 02:40:20;;;;;;;6.25;3.88;;;16.00;99.90;;;;;;5048537;28;20072;-79
2023/09/24 02:42:49;;;;;;;8.27;3.80;;;16.00;99.90;;;;;;5032228;28;20048;-79
2023/09/24 02:45:18;;;;;;;10.50;4.03;;;16.00;99.90;;;;;;5019782;28;20516;-80
2023/09/24 02:47:45;;;;;;;8.80;5.10;;;16.00;99.90;;;;;;5032419;28;20681;-80
2023/09/24 02:50:15;;;;;;;9.13;4.95;;;16.00;99.90;;;;;;5045708;28;20045;-81
2023/09/24 02:52:45;;;;;;;9.38;4.50;;;16.00;99.90;;;;;;5047768;28;20460;-79
2023/09/24 02:55:15;;;;;;;12.50;4.57;;;16.00;99.90;;;;;;5081266;28;20044;-80
2023/09/24 02:57:44;;;;;;;10.30;4.60;;;16.00;99.90;;;;;;5032004;28;20040;-81
2023/09/24 03:00:19;;;;;;;6.65;4.20;;;16.10;99.90;;;;;;5030309;28;20051;-82
2023/09/24 03:02:45;;;;;;;;;;;16.20;99.90;;;;;;5032757;28;20455;-80
2023/09/24 03:05:11;;;;;;;8.93;4.60;;;16.20;99.90;;;;;;5012988;28;20067;-81
2023/09/24 03:07:40;;;;;;;8.23;3.25;;;16.10;99.90;;;;;;5044400;28;20056;-81
2023/09/24 03:10:06;;;;;;;12.02;4.40;;;16.30;99.90;;;;;;5014379;28;20385;-82
2023/09/24 03:12:33;;;;;;;10.20;4.50;;;16.20;99.90;;;;;;5032125;28;20133;-81
2023/09/24 03:14:59;;;;;;;11.60;4.47;;;16.20;99.90;;;;;;5031652;28;20033;-80
2023/09/24 03:17:25;;;;;;;6.50;4.03;;;16.20;99.90;;;;;;5068022;28;20059;-82
2023/09/24 03:19:50;;;;;;;9.15;5.60;;;16.20;99.90;;;;;;5035724;28;20041;-81
2023/09/24 03:22:17;;;;;;;6.75;4.72;;;16.20;99.90;;;;;;5053697;28;20129;-82
2023/09/24 03:24:43;;;;;;;9.05;5.60;;;16.30;99.90;;;;;;5027616;28;20060;-82
2023/09/24 03:27:09;;;;;;;10.38;5.63;;;16.40;99.90;;;;;;5015941;28;20145;-80
2023/09/24 03:29:35;;;;;;;9.05;5.43;;;16.30;99.90;;;;;;5047025;28;20056;-84
2023/09/24 03:32:01;;;;;;;9.85;6.10;;;16.40;99.90;;;;;;5032159;28;20432;-82
2023/09/24 03:34:27;;;;;;;13.40;6.88;;;16.40;99.90;;;;;;5029131;28;20063;-82
2023/09/24 03:36:54;;;;;;;12.77;6.55;;;16.30;99.90;;;;;;5020429;28;20037;-82
2023/09/24 03:39:19;;;;;;;7.72;5.75;;;15.90;99.90;;;;;;5061868;28;20045;-82
2023/09/24 03:41:45;;;;;;;10.32;6.28;;;16.50;99.90;;;;;;5015100;28;20059;-82
2023/09/24 03:44:11;;;;;;;13.45;7.97;;;16.50;99.90;;;;;;5019237;28;20484;-83
2023/09/24 03:46:37;;;;;;;16.13;7.38;;;16.40;99.90;;;;;;5044035;28;20040;-82
2023/09/24 03:49:02;;;;;;;9.68;7.75;;;16.40;99.90;;;;;;5057963;28;20439;-80
2023/09/24 03:51:28;;;;;;;11.65;7.40;;;16.40;99.90;;;;;;5021460;28;20044;-80
2023/09/24 03:53:54;;;;;;;9.40;6.80;;;16.50;99.90;;;;;;5038195;28;20037;-81
2023/09/24 03:56:20;;;;;;;10.27;6.90;;;16.50;99.90;;;;;;5036401;28;20095;-80
2023/09/24 03:58:45;;;;;;;10.93;6.97;;;16.40;99.90;;;;;;5037316;28;20456;-80
2023/09/24 04:01:12;;;;;;;9.35;6.70;;;16.20;99.90;;;;;;5039298;28;20048;-80
2023/09/24 04:03:38;;;;;;;11.30;7.80;;;16.40;99.90;;;;;;5023398;28;20079;-81
2023/09/24 04:06:11;;;;;;;14.65;7.93;;;16.40;99.90;;;;;;5039601;28;20032;-81
2023/09/24 04:08:37;;;;;;;9.35;6.72;;;16.40;99.90;;;;;;5021463;28;20071;-78
2023/09/24 04:11:11;;;;;;;10.50;7.55;;;16.40;99.90;;;;;;5038859;28;20045;-79
2023/09/24 04:13:38;;;;;;;10.25;6.95;;;16.10;99.90;;;;;;5056362;28;20063;-80
2023/09/24 04:16:12;;;;;;;9.00;6.90;;;16.20;99.90;;;;;;5038598;28;20128;-81
2023/09/24 04:18:41;;;;;;;9.13;7.07;;;16.40;99.90;;;;;;5057472;28;20032;-82
2023/09/24 04:21:19;;;;;;;11.73;7.32;;;16.30;99.90;;;;;;5050215;28;20497;-80
2023/09/24 04:23:46;;;;;;;9.18;7.38;;;16.30;99.90;;;;;;5037593;28;20095;-80
2023/09/24 04:26:22;;;;;;;16.58;9.15;;;16.00;99.90;;;;;;5050339;28;20080;-81
2023/09/24 04:28:50;;;;;;;8.32;6.85;;;16.20;99.90;;;;;;5038315;28;20037;-81
2023/09/24 04:31:16;;;;;;;9.77;6.43;;;16.10;99.90;;;;;;5054753;28;20576;-80
2023/09/24 04:33:44;;;;;;;9.48;6.82;;;16.10;99.90;;;;;;5032213;28;20059;-81
2023/09/24 04:36:10;;;;;;;10.57;7.43;;;15.90;99.90;;;;;;5039132;28;20367;-82
2023/09/24 04:38:36;;;;;;;8.30;6.50;;;16.10;99.90;;;;;;5049276;28;20041;-81
2023/09/24 04:41:03;;;;;;;9.57;7.72;;;16.10;99.90;;;;;;5069725;28;20091;-82
2023/09/24 04:43:29;;;;;;;9.15;6.95;;;16.00;99.90;;;;;;5034405;28;20037;-81
2023/09/24 04:45:55;;;;;;;8.70;6.97;;;16.00;99.90;;;;;;5053041;28;20032;-83
2023/09/24 04:48:22;;;;;;;9.85;7.47;;;16.00;99.90;;;;;;5032874;28;20486;-82
2023/09/24 04:50:47;;;;;;;9.23;7.28;;;16.00;99.90;;;;;;5048865;28;20043;-80
2023/09/24 04:53:13;;;;;;;9.77;6.55;;;16.10;99.90;;;;;;5017562;28;20717;-82
2023/09/24 04:55:39;;;;;;;9.75;7.13;;;16.00;99.90;;;;;;5033244;28;20128;-81
2023/09/24 04:58:05;;;;;;;10.15;7.45;;;15.90;99.90;;;;;;5030620;28;20072;-82
2023/09/24 05:00:30;;;;;;;10.45;7.13;;;16.00;99.90;;;;;;5046725;28;20043;-82
2023/09/24 05:02:56;;;;;;;11.77;7.70;;;15.90;99.90;;;;;;5044667;28;20040;-82
2023/09/24 05:05:22;;;;;;;8.60;6.60;;;16.00;99.90;;;;;;5017459;28;20033;-80
2023/09/24 05:07:50;;;;;;;8.18;6.85;;;15.80;99.90;;;;;;5032169;28;20042;-82
2023/09/24 05:10:16;;;;;;;8.30;6.05;;;16.00;99.90;;;;;;5033857;28;20075;-80
2023/09/24 05:12:42;;;;;;;8.85;7.13;;;16.00;99.90;;;;;;5017164;28;20072;-79
2023/09/24 05:15:08;;;;;;;12.18;7.13;;;15.90;99.90;;;;;;5048536;28;20099;-80
2023/09/24 05:17:34;;;;;;;10.80;7.30;;;16.00;99.90;;;;;;5049495;28;20764;-80
2023/09/24 05:20:00;;;;;;;11.30;7.78;;;15.90;99.90;;;;;;5031026;28;20037;-80
2023/09/24 05:22:27;;;;;;;15.05;9.00;;;15.90;99.90;;;;;;5053416;28;20061;-79
2023/09/24 05:24:53;;;;;;;9.63;6.38;;;16.00;99.90;;;;;;5033333;28;20492;-79
2023/09/24 05:27:19;;;;;;;14.32;8.23;;;15.70;99.90;;;;;;5049918;28;20041;-79
2023/09/24 05:29:48;;;;;;;10.55;6.70;;;15.80;99.90;;;;;;5015931;28;20581;-79
2023/09/24 05:32:14;;;;;;;12.20;7.88;;;15.90;99.90;;;;;;5040979;28;20072;-79
2023/09/24 05:34:40;;;;;;;9.27;7.03;;;15.70;99.90;;;;;;5046503;28;20045;-80
2023/09/24 05:37:06;;;;;;;9.77;6.78;;;15.80;99.90;;;;;;5050322;28;20052;-80
2023/09/24 05:39:33;;;;;;;8.45;6.13;;;15.80;99.90;;;;;;5046640;28;20103;-79
2023/09/24 05:41:59;;;;;;;14.25;7.18;;;15.80;99.90;;;;;;5055953;28;20072;-80
2023/09/24 05:44:25;;;;;;;8.50;6.60;;;15.80;99.90;;;;;;5042334;28;20073;-79
2023/09/24 05:46:51;;;;;;;8.57;6.82;;;15.90;99.90;;;;;;5033899;28;20045;-79
2023/09/24 05:49:16;;;;;;;9.98;6.15;;;15.90;99.90;;;;;;5067409;28;20041;-80
2023/09/24 05:51:42;;;;;;;9.90;7.03;;;15.80;99.90;;;;;;5030455;28;20041;-79
2023/09/24 05:54:10;;;;;;;11.55;7.50;;;15.80;99.90;;;;;;5032257;28;20076;-81
2023/09/24 05:56:37;;;;;;;8.90;6.93;;;15.90;99.90;;;;;;5016731;28;20047;-81
2023/09/24 05:59:02;;;;;;;12.38;7.43;;;16.00;99.90;;;;;;5032369;28;20098;-79
2023/09/24 06:01:28;;;;;;;11.57;6.90;;;16.00;99.90;;;;;;5049241;28;20072;-81
2023/09/24 06:03:54;;;;;;;9.05;6.20;;;16.00;99.90;;;;;;5047416;28;20041;-82
2023/09/24 06:06:20;;;;;;;6.88;5.65;;;16.00;99.90;;;;;;5051670;28;20033;-81
2023/09/24 06:08:46;;;;;;;8.60;5.55;;;16.10;99.90;;;;;;5030402;28;20045;-81
2023/09/24 06:11:11;;;;;;;8.30;5.68;;;16.10;99.90;;;;;;5032348;28;20036;-79
2023/09/24 06:13:38;;;;;;;7.30;5.72;;;16.20;99.90;;;;;;5048213;28;20097;-79
2023/09/24 06:16:05;;;;;;;14.38;6.20;;;16.10;99.90;;;;;;5025013;28;20724;-83
2023/09/24 06:18:30;;;;;;;11.18;5.78;;;16.10;99.90;;;;;;5032775;28;20083;-83
2023/09/24 06:20:57;;;;;;;9.73;5.50;;;16.30;99.90;;;;;;5032539;28;20104;-81
2023/09/24 06:23:23;;;;;;;11.68;6.45;;;16.40;99.90;;;;;;5066142;28;20045;-82
2023/09/24 06:25:56;;;;;;;7.80;5.43;;;16.40;99.90;;;;;;5046891;28;20040;-80
2023/09/24 06:28:22;;;;;;;7.80;5.55;;;16.40;99.90;;;;;;5035669;28;20039;-82
2023/09/24 06:30:48;;;;;;;6.93;5.05;;;16.40;99.90;;;;;;5014722;28;20162;-79
2023/09/24 06:33:14;;;;;;;10.07;6.15;;;16.40;99.90;;;;;;5048603;28;20149;-80
2023/09/24 06:35:39;;;;;;;7.13;4.97;;;16.50;99.90;;;;;;5049296;28;20037;-79
2023/09/24 06:38:05;;;;;;;11.38;6.20;;;16.40;99.90;;;;;;5042559;28;20047;-81
2023/09/24 06:40:31;;;;;;;7.68;5.88;;;16.50;99.90;;;;;;5028926;28;20068;-81
2023/09/24 06:42:57;;;;;;;9.15;5.50;;;16.50;99.90;;;;;;5057420;28;20059;-79
2023/09/24 06:45:22;;;;;;;11.05;7.25;;;16.60;99.90;;;;;;5048653;28;20385;-81
2023/09/24 06:47:48;;;;;;;9.98;5.85;;;16.80;99.90;;;;;;5052838;28;20105;-80
2023/09/24 06:50:14;;;;;;;8.52;6.32;;;16.60;99.90;;;;;;5047164;28;20041;-80
2023/09/24 06:52:40;;;;;;;8.85;5.60;;;16.80;99.90;;;;;;5047805;28;20047;-81
2023/09/24 06:55:09;;;;;;;9.10;5.88;;;17.00;99.90;;;;;;5041300;28;20048;-80
2023/09/24 06:57:36;;;;;;;8.75;5.85;;;17.00;99.90;;;;;;5028087;28;20059;-81
2023/09/24 07:00:08;;;;;;;12.38;6.40;;;17.10;99.90;;;;;;5040750;28;20524;-63
2023/09/24 07:02:33;;;;;;;11.75;6.18;;;17.10;99.90;;;;;;5026490;28;20033;-81
2023/09/24 07:04:59;;;;;;;8.57;6.00;;;17.10;99.90;;;;;;5011003;28;20036;-83
2023/09/24 07:07:26;;;;;;;9.75;5.90;;;17.20;99.90;;;;;;5023937;28;20377;-83
2023/09/24 07:09:52;;;;;;;5.95;5.30;;;17.00;99.90;;;;;;5006727;28;20042;-82
2023/09/24 07:12:18;;;;;;;10.45;5.97;;;17.20;99.90;;;;;;5041899;28;20484;-82
2023/09/24 07:14:44;;;;;;;8.20;5.90;;;17.30;99.90;;;;;;5024592;28;20656;-83
2023/09/24 07:17:10;;;;;;;9.80;5.72;;;17.30;99.90;;;;;;5009041;28;20041;-80
2023/09/24 07:19:58;;;;;;;;;;;;;;;;;;;;;
2023/09/24 07:22:53;;;;;;;10.20;5.75;;;17.30;99.90;;;;;;5070530;27;2335481;-79
2023/09/24 07:25:19;;;;;;;10.05;6.30;;;17.50;99.90;;;;;;5104391;27;20038;-81
2023/09/24 07:27:45;;;;;;;9.60;5.82;;;17.40;99.90;;;;;;5099332;28;20092;-82
2023/09/24 07:30:11;;;;;;;10.88;6.32;;;17.50;99.90;;;;;;5060126;27;20483;-82
2023/09/24 07:32:37;;;;;;;12.70;6.07;;;17.50;99.90;;;;;;5120801;27;20047;-83
2023/09/24 07:35:04;;;;;;;9.30;5.57;;;17.50;99.90;;;;;;5098657;27;20145;-82
2023/09/24 07:37:30;;;;;;;11.70;6.25;;;17.70;99.90;;;;;;5083851;27;20035;-80
2023/09/24 07:39:55;;;;;;;9.10;5.25;;;17.60;99.90;;;;;;5101694;27;20144;-83
2023/09/24 07:42:21;;;;;;;7.88;5.03;;;17.70;99.90;;;;;;5082994;27;20073;-84
2023/09/24 07:44:48;;;;;;;7.32;5.55;;;17.80;99.90;;;;;;5107377;27;20379;-82
2023/09/24 07:47:14;;;;;;;9.02;5.75;;;17.90;99.90;;;;;;5142057;27;20565;-82
2023/09/24 07:49:40;;;;;;;8.38;5.30;;;17.90;99.90;;;;;;5080294;27;20035;-80
2023/09/24 07:52:06;;;;;;;8.30;5.35;;;17.80;99.90;;;;;;5117651;27;20039;-82
2023/09/24 07:54:32;;;;;;;6.95;4.90;;;18.00;99.90;;;;;;5091758;28;20039;-82
2023/09/24 07:56:58;;;;;;;6.05;4.10;;;17.80;99.90;;;;;;5092829;27;20049;-79
2023/09/24 07:59:23;;;;;;;9.48;4.97;;;17.80;99.90;;;;;;5110941;27;20101;-82
2023/09/24 08:01:49;;;;;;;10.40;5.60;;;17.90;99.90;;;;;;5075088;27;20137;-81
2023/09/24 08:04:15;;;;;;;9.80;5.00;;;18.00;99.90;;;;;;5077880;28;20043;-82
2023/09/24 08:06:42;;;;;;;9.40;5.28;;;18.00;99.90;;;;;;5100645;28;20062;-83
2023/09/24 08:09:08;;;;;;;8.48;5.15;;;17.90;99.90;;;;;;5110188;27;20046;-82
2023/09/24 08:11:34;;;;;;;7.43;4.55;;;17.90;99.90;;;;;;5074462;28;20039;-81
2023/09/24 08:13:59;;;;;;;8.38;4.78;;;18.00;99.90;;;;;;5091845;28;20036;-81
2023/09/24 08:16:26;;;;;;;7.82;4.72;;;18.10;99.90;;;;;;5092548;28;20481;-81
2023/09/24 08:18:52;;;;;;;9.00;5.45;;;18.20;99.90;;;;;;5089933;27;20525;-86
2023/09/24 08:21:38;;;;;;;9.73;5.03;;;18.10;99.90;;;;;;5108188;27;20082;-80
2023/09/24 08:24:04;;;;;;;7.00;4.45;;;18.30;99.90;;;;;;5101993;27;20081;-81
2023/09/24 08:26:31;;;;;;;7.55;4.00;;;18.40;99.90;;;;;;5099183;27;20730;-82
2023/09/24 08:28:57;;;;;;;7.50;4.60;;;18.30;99.90;;;;;;5116226;27;20043;-83
2023/09/24 08:31:25;;;;;;;6.50;4.10;;;18.40;99.90;;;;;;5127476;27;20039;-81
2023/09/24 08:33:51;;;;;;;6.88;4.00;;;18.40;99.90;;;;;;5098894;27;20043;-80
2023/09/24 08:36:17;;;;;;;9.13;3.97;;;18.60;99.90;;;;;;5077635;28;20067;-81
2023/09/24 08:38:43;;;;;;;5.30;3.22;;;18.50;99.90;;;;;;5062194;28;20082;-83
2023/09/24 08:41:12;;;;;;;8.38;4.00;;;18.60;99.90;;;;;;5045260;28;20048;-82
2023/09/24 08:43:40;;;;;;;7.53;3.88;;;18.60;99.90;;;;;;5094204;27;20698;-83
2023/09/24 08:46:08;;;;;;;7.50;3.75;;;18.60;99.90;;;;;;5072720;28;20277;-83
2023/09/24 08:48:34;;;;;;;7.28;3.42;;;18.60;99.90;;;;;;5109700;27;20359;-82
2023/09/24 08:51:04;;;;;;;7.72;3.83;;;18.70;99.90;;;;;;5077037;28;20645;-81
2023/09/24 08:53:30;;;;;;;7.95;3.65;;;18.80;99.90;;;;;;5061488;28;20047;-82
2023/09/24 08:55:56;;;;;;;4.38;2.90;;;18.90;99.90;;;;;;5077880;28;20032;-82
2023/09/24 08:58:23;;;;;;;9.60;3.90;;;19.00;99.90;;;;;;5060973;28;20043;-82
2023/09/24 09:00:48;;;;;;;8.30;4.00;;;19.10;99.90;;;;;;5076184;28;20447;-82
2023/09/24 09:03:18;;;;;;;6.88;3.15;;;19.10;99.90;;;;;;5076351;27;20072;-82
2023/09/24 09:05:44;;;;;;;9.50;3.28;;;19.10;99.90;;;;;;5076715;27;20065;-83
2023/09/24 09:08:18;;;;;;;9.43;3.85;;;19.20;99.90;;;;;;5076649;28;20080;-83
2023/09/24 09:10:58;;;;;;;6.82;3.55;;;19.30;99.90;;;;;;5079639;27;20046;-82
2023/09/24 09:13:25;;;;;;;6.68;3.05;;;19.30;99.90;;;;;;5076951;28;20043;-83
2023/09/24 09:16:02;;;;;;;5.50;2.90;;;19.40;99.90;;;;;;5080760;27;20043;-83
2023/09/24 09:18:29;;;;;;;5.70;2.97;;;19.50;99.90;;;;;;5096276;27;20380;-80
2023/09/24 09:21:01;;;;;;;4.97;3.17;;;19.50;99.90;;;;;;5111649;27;20062;-85
2023/09/24 09:23:44;;;;;;;7.63;2.78;;;19.60;99.90;;;;;;5087262;28;20071;-82
2023/09/24 09:26:16;;;;;;;5.40;2.55;;;19.60;99.90;;;;;;5079200;28;20036;-81
2023/09/24 09:29:05;;;;;;;6.82;2.50;;;19.70;99.90;;;;;;5074355;28;20093;-83
2023/09/24 09:31:50;;;;;;;6.50;2.75;;;19.70;99.90;;;;;;5065898;28;20519;-82
2023/09/24 09:34:21;;;;;;;5.72;2.42;;;20.00;99.90;;;;;;5089158;28;20036;-84
2023/09/24 09:36:47;;;;;;;4.70;2.70;;;19.90;99.90;;;;;;5074118;28;20118;-83
2023/09/24 09:39:13;;;;;;;6.72;2.42;;;20.00;99.90;;;;;;5080466;27;20126;-82
2023/09/24 09:41:43;;;;;;;4.25;2.35;;;20.20;99.90;;;;;;5104596;28;20039;-83
2023/09/24 09:44:13;;;;;;;5.75;2.22;;;20.20;99.90;;;;;;5077878;28;20374;-84
2023/09/24 09:46:45;;;;;;;7.15;2.50;;;20.30;99.90;;;;;;5091939;28;20119;-85
2023/09/24 09:49:20;;;;;;;6.65;2.67;;;20.30;99.90;;;;;;5072604;28;20066;-84
2023/09/24 09:51:48;;;;;;;5.57;2.42;;;20.50;99.90;;;;;;5093962;28;20147;-83
2023/09/24 09:54:15;;;;;;;7.60;2.17;;;21.30;99.90;;;;;;5077185;28;20353;-84
2023/09/24 09:57:04;;;;;;;4.75;2.38;;;21.10;99.90;;;;;;5072739;28;20394;-83
2023/09/24 09:59:34;;;;;;;6.43;2.80;;;21.30;99.90;;;;;;5091836;28;20134;-84
2023/09/24 10:02:00;;;;;;;6.20;2.65;;;21.20;99.90;;;;;;5093476;28;20031;-84
2023/09/24 10:04:29;;;;;;;6.07;2.60;;;21.30;99.90;;;;;;5090696;28;20500;-85
2023/09/24 10:06:55;;;;;;;5.25;2.92;;;21.50;99.90;;;;;;5092918;28;20044;-84
2023/09/24 10:09:27;;;;;;;6.53;2.50;;;21.60;99.90;;;;;;5092803;28;20088;-84
2023/09/24 10:11:55;;;;;;;5.68;2.25;;;21.40;99.90;;;;;;5093189;27;20039;-84
2023/09/24 10:14:38;;;;;;;6.38;2.35;;;21.40;99.90;;;;;;5078647;28;20051;-87
2023/09/24 10:17:16;;;;;;;5.22;2.42;;;20.80;99.90;;;;;;5073014;28;20044;-86
2023/09/24 10:19:53;;;;;;;4.07;1.90;;;21.40;99.90;;;;;;5092354;28;20040;-83
2023/09/24 10:22:24;;;;;;;4.35;1.95;;;21.30;99.90;;;;;;5065071;28;20052;-84
2023/09/24 10:24:50;;;;;;;3.67;2.17;;;21.40;99.90;;;;;;5063584;28;20096;-85
2023/09/24 10:27:20;;;;;;;3.67;2.10;;;21.40;99.90;;;;;;5072552;28;20467;-84
2023/09/24 10:29:53;;;;;;;4.15;1.92;;;21.40;99.90;;;;;;5077322;28;20577;-84
2023/09/24 10:32:26;;;;;;;4.25;2.00;;;21.60;99.90;;;;;;5074169;28;20420;-85
2023/09/24 10:34:52;;;;;;;3.22;1.70;;;21.80;99.90;;;;;;5069022;28;20048;-86
2023/09/24 10:37:34;;;;;;;7.78;1.90;;;21.60;99.90;;;;;;5068970;28;20055;-85
2023/09/24 10:40:00;;;;;;;4.47;1.85;;;21.70;99.90;;;;;;5070366;28;20035;-86
2023/09/24 10:42:26;;;;;;;3.10;1.50;;;21.60;99.90;;;;;;5089426;28;20097;-84
2023/09/24 10:45:07;;;;;;;4.55;1.98;;;21.70;99.90;;;;;;5072678;28;20119;-86
2023/09/24 10:47:35;;;;;;;5.22;1.88;;;21.40;99.90;;;;;;5071098;28;20031;-86
2023/09/24 10:50:05;;;;;;;4.63;1.85;;;21.40;99.90;;;;;;5069255;28;20396;-84
2023/09/24 10:52:49;;;;;;;5.10;1.95;;;21.30;99.90;;;;;;5080864;28;20406;-84
2023/09/24 10:55:16;;;;;;;5.40;1.83;;;21.30;99.90;;;;;;5069071;28;20047;-83
2023/09/24 10:57:46;;;;;;;3.88;1.90;;;21.20;99.90;;;;;;5053712;28;20484;-85
2023/09/24 11:00:16;;;;;;;7.93;1.98;;;21.10;99.90;;;;;;5069195;28;20132;-85
2023/09/24 11:02:42;;;;;;;6.88;1.92;;;21.10;99.90;;;;;;5063300;28;20033;-86
2023/09/24 11:05:09;;;;;;;4.07;1.60;;;21.10;99.90;;;;;;5069564;28;20044;-84
2023/09/24 11:07:35;;;;;;;4.45;1.73;;;20.80;99.90;;;;;;5075298;28;20405;-85
2023/09/24 11:10:01;;;;;;;4.65;1.80;;;20.90;99.90;;;;;;5068995;28;20079;-87
2023/09/24 11:12:27;;;;;;;4.38;1.75;;;20.90;99.90;;;;;;5069432;28;20067;-85
2023/09/24 11:14:57;;;;;;;6.05;2.05;;;20.90;99.90;;;;;;5067605;28;20360;-84
2023/09/24 11:17:24;;;;;;;3.45;2.10;;;20.90;99.90;;;;;;5072133;28;20047;-84
2023/09/24 11:19:50;;;;;;;6.35;2.20;;;20.70;99.90;;;;;;5072381;28;20032;-88
2023/09/24 11:22:20;;;;;;;3.78;1.70;;;20.70;99.90;;;;;;5061165;28;20051;-85
2023/09/24 11:25:07;;;;;;;5.07;1.83;;;20.70;99.90;;;;;;5094106;28;20043;-86
2023/09/24 11:27:34;;;;;;;4.53;1.75;;;20.90;99.90;;;;;;5091036;28;20040;-84
2023/09/24 11:30:00;;;;;;;3.15;1.52;;;21.00;99.90;;;;;;5080163;28;20040;-85
2023/09/24 11:32:27;;;;;;;3.92;1.73;;;21.10;99.90;;;;;;5108073;28;20039;-86
2023/09/24 11:35:17;;;;;;;6.80;1.77;;;21.10;99.90;;;;;;5089597;28;20074;-86
2023/09/24 11:37:52;;;;;;;4.85;1.90;;;20.70;99.90;;;;;;5063091;28;20044;-84
2023/09/24 11:40:26;;;;;;;4.70;2.10;;;20.70;99.90;;;;;;5072361;28;20040;-84
2023/09/24 11:43:00;;;;;;;2.97;1.70;;;20.60;99.90;;;;;;5055010;28;20044;-85
2023/09/24 11:45:48;;;;;;;4.65;1.88;;;20.70;99.90;;;;;;5072886;28;20092;-84
2023/09/24 11:48:25;;;;;;;6.78;2.25;;;20.70;99.90;;;;;;5071630;28;20048;-84
2023/09/24 11:51:11;;;;;;;4.10;2.13;;;20.80;99.90;;;;;;5077554;28;20043;-85
2023/09/24 11:53:37;;;;;;;5.40;3.15;;;19.60;99.90;;;;;;5094456;28;20036;-84
2023/09/24 11:56:04;;;;;;;3.47;1.60;;;20.90;99.90;;;;;;5070985;28;20074;-84
2023/09/24 11:58:30;;;;;;;3.95;1.55;;;20.90;99.90;;;;;;5089859;28;20047;-84
2023/09/24 12:00:58;;;;;;;5.05;1.98;;;20.70;99.90;;;;;;5067862;28;20515;-85
2023/09/24 12:03:25;;;;;;;4.43;2.10;;;20.70;99.90;;;;;;5092284;28;20032;-85
2023/09/24 12:05:51;;;;;;;4.13;1.67;;;20.80;99.90;;;;;;5084994;28;20040;-85
2023/09/24 12:08:17;;;;;;;3.17;1.58;;;20.80;99.90;;;;;;5112140;28;20032;-85
2023/09/24 12:10:47;;;;;;;3.78;1.70;;;20.90;99.90;;;;;;5096949;28;20399;-86
2023/09/24 12:13:15;;;;;;;3.85;1.90;;;21.00;99.90;;;;;;5068573;28;20046;-83
2023/09/24 12:15:41;;;;;;;3.38;1.73;;;20.80;99.90;;;;;;5090008;28;20796;-83
2023/09/24 12:18:08;;;;;;;4.18;1.70;;;20.70;99.90;;;;;;5075805;28;20039;-83
2023/09/24 12:20:36;;;;;;;3.63;1.65;;;20.70;99.90;;;;;;5077271;28;20396;-83
2023/09/24 12:23:04;;;;;;;2.30;1.25;;;20.60;99.90;;;;;;5093751;28;20480;-83
2023/09/24 12:25:31;;;;;;;8.02;1.88;;;20.60;99.90;;;;;;5077040;28;20039;-83
2023/09/24 12:27:56;;;;;;;3.28;1.70;;;20.70;99.90;;;;;;5075735;28;20610;-82
2023/09/24 12:30:22;;;;;;;2.95;1.50;;;20.80;99.90;;;;;;5110415;28;20046;-81
2023/09/24 12:32:48;;;;;;;4.05;1.92;;;20.90;99.90;;;;;;5092607;28;20040;-82
2023/09/24 12:35:14;;;;;;;4.63;1.65;;;20.90;99.90;;;;;;5077158;28;20040;-80
2023/09/24 12:37:41;;;;;;;2.97;1.50;;;20.90;99.90;;;;;;5090700;28;20108;-80
2023/09/24 12:40:09;;;;;;;2.72;1.65;;;20.90;99.90;;;;;;5090571;28;20036;-82
2023/09/24 12:42:36;;;;;;;4.45;1.70;;;21.00;99.90;;;;;;5108910;28;20042;-82
2023/09/24 12:45:04;;;;;;;3.65;1.35;;;21.00;99.90;;;;;;5087789;28;20035;-82
2023/09/24 12:47:32;;;;;;;2.60;1.67;;;21.10;99.90;;;;;;5088058;28;20039;-83
2023/09/24 12:50:00;;;;;;;5.43;2.13;;;21.00;99.90;;;;;;5081389;28;20092;-80
2023/09/24 12:52:30;;;;;;;3.42;1.55;;;21.20;99.90;;;;;;5077261;28;20047;-82